LTAY Airport Information

Runway Information
Runway 06 Length 9842 ft width 148 ft
Elevation 2797 ft Threshold 0 ft Heading 59
Runway 24 Length 9842 ft Width 148 ft
Elevation 2774 ft Threshold 0 ft Heading 239
Airport Frequencies
Type APP Name MENDERES A Frequency 121.6 MHZ
Type GND Name GND Frequency 25.125 MHZ
Type TWR Name TWR Frequency 118.6 MHZ
Airport Navaids
Type TACAN Name Cardak Frequency 133300 KHZ
Type VOR-DME Name Cardak Frequency 112000 KHZ
Type NDB Name Cardak Frequency 433 KHZ
Airport Weather Information & NOTAM
ADDS - METARS form results

(2319 UTC 16 February 2019)
Data provider http://aviationweather.gov/metar/data/
 
METAR text: LTAY 162250Z 15009KT CAVOK M00/M03 Q1021
Conditions at: LTAY (CARDAK , TR) observed 2250 UTC 16 February 2019
Temperature: 0.0°C (32°F)
Dewpoint: -3.0°C (27°F) [RH = 80%]
Pressure (altimeter): 30.15 inches Hg (1021.0 mb)
Winds: from the SSE (150 degrees) at 10 MPH (9 knots; 4.6 m/s)
Visibility: 6 or more miles (10+ km)
Ceiling: ceiling and visibility are OK
Clouds: unknown
Weather: no significant weather observed at this time

Forecast for: LTAY (CARDAK , TR)
Text: TAF LTAY 162240Z 1700/1709 10012KT CAVOK
Forecast period: 0000 to 0900 UTC 17 February 2019
Forecast type: FROM: standard forecast or significant change
Winds: from the E (100 degrees) at 14 MPH (12 knots; 6.2 m/s)
Visibility: 6 or more miles 10+ km)
Ceiling: unknown
Clouds: missing
Weather: NSW  (no significant weather)